createdAt,value
2019-05-15T00:00:28.835Z,13.31
2019-05-15T00:03:00.559Z,13.32
2019-05-15T00:05:33.001Z,13.31
2019-05-15T00:08:04.970Z,13.28
2019-05-15T00:10:38.913Z,13.26
2019-05-15T00:13:10.457Z,13.23
2019-05-15T00:15:42.518Z,13.19
2019-05-15T00:18:14.614Z,13.15
2019-05-15T00:20:49.380Z,13.08
2019-05-15T00:23:19.742Z,13.04
2019-05-15T00:25:51.803Z,12.95
2019-05-15T00:28:23.921Z,12.84
2019-05-15T00:30:58.090Z,12.76
2019-05-15T00:33:30.575Z,12.70
2019-05-15T00:36:02.988Z,12.62
2019-05-15T00:38:35.295Z,12.57
2019-05-15T00:41:09.518Z,12.50
2019-05-15T00:43:41.166Z,12.44
2019-05-15T00:46:13.136Z,12.42
2019-05-15T00:48:44.884Z,12.41
2019-05-15T00:51:19.288Z,12.41
2019-05-15T00:53:50.347Z,12.42
2019-05-15T00:56:24.198Z,12.45
2019-05-15T00:58:58.687Z,12.49
2019-05-15T01:01:30.869Z,12.53
2019-05-15T01:04:03.415Z,12.52
2019-05-15T01:06:38.975Z,12.49
2019-05-15T01:09:10.728Z,12.47
2019-05-15T01:11:43.533Z,12.47
2019-05-15T01:14:15.267Z,12.46
2019-05-15T01:16:48.980Z,12.45
2019-05-15T01:19:20.502Z,12.41
2019-05-15T01:21:52.462Z,12.37
2019-05-15T01:24:24.444Z,12.29
2019-05-15T01:26:58.456Z,12.19
2019-05-15T01:29:40.651Z,12.09
2019-05-15T01:32:03.613Z,12.01
2019-05-15T01:34:35.636Z,11.97
2019-05-15T01:37:08.512Z,12.00
2019-05-15T01:39:41.643Z,12.02
2019-05-15T01:42:14.739Z,12.05
2019-05-15T01:44:48.398Z,12.09
2019-05-15T01:47:20.180Z,12.06
2019-05-15T01:49:52.265Z,12.04
2019-05-15T01:52:24.473Z,11.99
2019-05-15T01:54:58.272Z,11.93
2019-05-15T01:57:30.195Z,11.88
2019-05-15T02:00:03.053Z,11.85
2019-05-15T02:02:34.738Z,11.85
2019-05-15T02:05:08.450Z,11.85
2019-05-15T02:07:40.718Z,11.86
2019-05-15T02:10:12.497Z,11.86
2019-05-15T02:12:44.627Z,11.94
2019-05-15T02:15:18.991Z,12.01
2019-05-15T02:17:50.917Z,12.05
2019-05-15T02:20:22.867Z,12.11
2019-05-15T02:22:54.844Z,12.16
2019-05-15T02:25:28.042Z,12.15
2019-05-15T02:27:59.977Z,12.18
2019-05-15T02:30:34.090Z,12.19
2019-05-15T02:33:05.259Z,12.23
2019-05-15T02:35:39.285Z,12.24
2019-05-15T02:38:15.194Z,12.20
2019-05-15T02:40:44.016Z,12.16
2019-05-15T02:43:18.768Z,12.15
2019-05-15T02:45:50.766Z,12.18
2019-05-15T02:48:22.893Z,12.19
2019-05-15T02:50:54.708Z,12.19
2019-05-15T02:53:29.623Z,12.20
2019-05-15T02:56:01.337Z,12.18
2019-05-15T02:58:33.278Z,12.15
2019-05-15T03:01:05.461Z,12.12
2019-05-15T03:03:38.728Z,12.15
2019-05-15T03:06:10.610Z,12.24
2019-05-15T03:08:42.256Z,12.37
2019-05-15T03:11:14.009Z,12.48
2019-05-15T03:13:46.082Z,12.59
2019-05-15T03:16:19.374Z,12.70
2019-05-15T03:18:55.312Z,12.77
2019-05-15T03:21:24.611Z,12.88
2019-05-15T03:23:59.463Z,12.97
2019-05-15T03:26:30.192Z,13.04
2019-05-15T03:29:02.309Z,13.10
2019-05-15T03:31:50.499Z,13.17
2019-05-15T03:34:20.054Z,13.24
2019-05-15T03:36:45.244Z,13.32
2019-05-15T03:39:14.794Z,13.41
2019-05-15T03:41:49.546Z,13.45
2019-05-15T03:44:20.036Z,13.50
2019-05-15T03:46:51.816Z,13.57
2019-05-15T03:49:23.428Z,13.63
2019-05-15T03:51:55.040Z,13.68
2019-05-15T03:54:29.296Z,13.71
2019-05-15T03:57:00.087Z,13.77
2019-05-15T03:59:31.835Z,13.84
2019-05-15T04:02:03.454Z,13.93
2019-05-15T04:04:35.095Z,14.02
2019-05-15T04:07:09.337Z,14.09
2019-05-15T04:10:04.114Z,14.15
2019-05-15T04:12:39.836Z,14.23
2019-05-15T04:15:10.945Z,14.35
2019-05-15T04:17:42.657Z,14.44
2019-05-15T04:20:15.123Z,14.54
2019-05-15T04:22:49.169Z,14.64
2019-05-15T04:25:20.699Z,14.73
2019-05-15T04:27:53.402Z,14.81
2019-05-15T04:30:25.162Z,14.89
2019-05-15T04:32:59.469Z,15.00
2019-05-15T04:35:30.324Z,15.09
2019-05-15T04:38:02.281Z,15.18
2019-05-15T04:40:33.895Z,15.29
2019-05-15T04:43:05.509Z,15.40
2019-05-15T04:45:39.209Z,15.53
2019-05-15T04:48:10.728Z,15.63
2019-05-15T04:50:42.653Z,15.75
2019-05-15T04:53:14.472Z,15.86
2019-05-15T04:55:49.078Z,15.99
2019-05-15T04:58:21.090Z,16.09
2019-05-15T05:00:54.158Z,16.22
2019-05-15T05:03:28.844Z,16.34
2019-05-15T05:05:59.419Z,16.47
2019-05-15T05:08:31.723Z,16.61
2019-05-15T05:11:03.366Z,16.72
2019-05-15T05:13:35.331Z,16.81
2019-05-15T05:16:09.530Z,16.93
2019-05-15T05:18:41.866Z,17.04
2019-05-15T05:21:13.669Z,17.18
2019-05-15T05:23:48.358Z,17.31
2019-05-15T05:26:20.036Z,17.45
2019-05-15T05:28:52.004Z,17.55
2019-05-15T05:31:23.790Z,17.66
2019-05-15T05:33:55.338Z,17.78
2019-05-15T05:36:27.910Z,17.92
2019-05-15T05:39:00.570Z,18.06
2019-05-15T05:41:32.457Z,18.19
2019-05-15T05:44:04.610Z,18.31
2019-05-15T05:46:36.279Z,18.45
2019-05-15T05:49:08.230Z,18.58
2019-05-15T05:51:40.193Z,18.67
2019-05-15T05:54:11.849Z,18.76
2019-05-15T05:56:43.824Z,18.87
2019-05-15T05:59:18.354Z,19.01
2019-05-15T06:01:49.281Z,19.13
2019-05-15T06:04:21.443Z,19.28
2019-05-15T06:07:05.902Z,19.46
2019-05-15T06:09:27.828Z,19.64
2019-05-15T06:11:59.670Z,19.83
2019-05-15T06:14:31.340Z,19.92
2019-05-15T06:17:03.559Z,20.02
2019-05-15T06:19:35.680Z,20.16
2019-05-15T06:22:08.738Z,20.20
2019-05-15T06:24:40.499Z,20.32
2019-05-15T06:27:12.385Z,20.41
2019-05-15T06:29:44.342Z,20.53
2019-05-15T06:32:19.238Z,20.61
2019-05-15T06:34:49.600Z,20.76
2019-05-15T06:37:21.358Z,20.88
2019-05-15T06:39:53.228Z,21.06
2019-05-15T06:42:25.082Z,21.25
2019-05-15T06:44:58.872Z,21.39
2019-05-15T06:47:30.219Z,21.47
2019-05-15T06:50:02.092Z,21.61
2019-05-15T06:52:34.142Z,21.75
2019-05-15T06:55:09.026Z,21.91
2019-05-15T06:57:40.954Z,22.01
2019-05-15T07:00:13.325Z,22.11
2019-05-15T07:02:45.189Z,22.27
2019-05-15T07:05:18.361Z,22.38
2019-05-15T07:07:50.140Z,22.49
2019-05-15T07:10:21.977Z,22.55
2019-05-15T07:12:53.647Z,22.66
2019-05-15T07:15:27.854Z,22.76
2019-05-15T07:18:00.440Z,22.90
2019-05-15T07:20:32.305Z,23.04
2019-05-15T07:23:04.600Z,23.25
2019-05-15T07:25:38.833Z,23.35
2019-05-15T07:28:09.811Z,23.46
2019-05-15T07:30:41.896Z,23.53
2019-05-15T07:33:13.752Z,23.67
2019-05-15T07:35:45.621Z,23.75
2019-05-15T07:38:18.264Z,23.93
2019-05-15T07:40:59.280Z,24.17
2019-05-15T07:43:23.568Z,24.38
2019-05-15T07:45:55.983Z,24.67
2019-05-15T07:48:29.154Z,24.93
2019-05-15T07:51:00.986Z,25.18
2019-05-15T07:53:32.716Z,25.38
2019-05-15T07:56:04.683Z,25.57
2019-05-15T07:58:38.665Z,25.65
2019-05-15T08:01:10.294Z,25.66
2019-05-15T08:03:55.574Z,25.86
2019-05-15T08:06:17.866Z,26.08
2019-05-15T08:08:49.100Z,26.20
2019-05-15T08:11:24.659Z,26.48
2019-05-15T08:13:54.275Z,26.59
2019-05-15T08:16:28.481Z,26.75
2019-05-15T08:18:59.934Z,26.90
2019-05-15T08:21:32.006Z,27.04
2019-05-15T08:24:03.659Z,27.14
2019-05-15T08:26:37.801Z,27.33
2019-05-15T08:29:09.120Z,27.45
2019-05-15T08:31:40.985Z,27.59
2019-05-15T08:34:16.250Z,27.61
2019-05-15T08:36:48.286Z,27.66
2019-05-15T08:39:19.743Z,27.50
2019-05-15T08:41:51.700Z,27.43
2019-05-15T08:44:24.483Z,27.40
2019-05-15T08:46:58.432Z,27.21
2019-05-15T08:49:30.957Z,27.18
2019-05-15T08:52:02.515Z,27.02
2019-05-15T08:54:34.586Z,26.79
2019-05-15T08:57:08.508Z,26.65
2019-05-15T08:59:39.924Z,26.54
2019-05-15T09:02:11.702Z,26.47
2019-05-15T09:04:43.561Z,26.43
2019-05-15T09:07:15.196Z,26.46
2019-05-15T09:09:48.741Z,26.38
2019-05-15T09:12:21.493Z,26.31
2019-05-15T09:14:53.459Z,26.29
2019-05-15T09:17:25.522Z,26.30
2019-05-15T09:19:58.828Z,26.32
2019-05-15T09:22:30.559Z,26.37
2019-05-15T09:25:02.441Z,26.35
2019-05-15T09:27:34.600Z,26.33
2019-05-15T09:30:09.226Z,26.41
2019-05-15T09:32:41.191Z,26.48
2019-05-15T09:35:18.681Z,26.58
2019-05-15T09:37:50.022Z,26.71
2019-05-15T09:40:21.668Z,26.92
2019-05-15T09:42:53.425Z,27.01
2019-05-15T09:45:28.530Z,27.04
2019-05-15T09:47:59.808Z,27.06
2019-05-15T09:50:31.704Z,27.16
2019-05-15T09:53:03.554Z,27.22
2019-05-15T09:55:37.992Z,27.22
2019-05-15T09:58:08.428Z,27.29
2019-05-15T10:00:40.054Z,27.37
2019-05-15T10:03:12.840Z,27.37
2019-05-15T10:05:44.986Z,27.38
2019-05-15T10:08:17.088Z,27.53
2019-05-15T10:10:49.741Z,27.53
2019-05-15T10:13:21.914Z,27.51
2019-05-15T10:15:53.671Z,27.53
2019-05-15T10:18:28.050Z,27.59
2019-05-15T10:20:58.821Z,27.47
2019-05-15T10:23:30.728Z,27.53
2019-05-15T10:26:02.876Z,27.65
2019-05-15T10:28:34.976Z,27.73
2019-05-15T10:31:09.334Z,27.84
2019-05-15T10:33:40.256Z,27.94
2019-05-15T10:36:12.220Z,27.95
2019-05-15T10:38:44.138Z,27.99
2019-05-15T10:41:18.551Z,28.08
2019-05-15T10:43:55.989Z,28.23
2019-05-15T10:46:21.830Z,28.39
2019-05-15T10:48:53.693Z,28.54
2019-05-15T10:51:25.450Z,28.55
2019-05-15T10:53:57.306Z,28.53
2019-05-15T10:56:29.334Z,28.59
2019-05-15T10:59:01.031Z,28.68
2019-05-15T11:01:32.672Z,28.56
2019-05-15T11:04:04.755Z,28.59
2019-05-15T11:06:38.339Z,28.64
2019-05-15T11:09:09.817Z,28.62
2019-05-15T11:11:41.460Z,28.71
2019-05-15T11:14:13.117Z,28.88
2019-05-15T11:16:44.667Z,28.96
2019-05-15T11:19:16.735Z,29.12
2019-05-15T11:21:48.749Z,29.18
2019-05-15T11:24:21.053Z,29.31
2019-05-15T11:26:56.023Z,29.13
2019-05-15T11:29:25.723Z,28.81
2019-05-15T11:31:58.161Z,28.69
2019-05-15T11:34:30.875Z,28.78
2019-05-15T11:37:03.873Z,28.60
2019-05-15T11:39:44.600Z,28.50
2019-05-15T11:42:09.720Z,28.32
2019-05-15T11:44:41.573Z,28.24
2019-05-15T11:47:13.759Z,28.24
2019-05-15T11:49:45.712Z,28.37
2019-05-15T11:52:18.788Z,28.42
2019-05-15T11:54:50.086Z,28.40
2019-05-15T11:57:36.978Z,28.34
2019-05-15T11:59:55.688Z,28.50
2019-05-15T12:02:29.336Z,28.55
2019-05-15T12:05:01.276Z,28.61
2019-05-15T12:07:33.114Z,28.74
2019-05-15T12:10:11.960Z,28.85
2019-05-15T12:12:43.912Z,28.94
2019-05-15T12:15:18.584Z,28.81
2019-05-15T12:17:49.378Z,28.75
2019-05-15T12:20:21.746Z,28.73
2019-05-15T12:22:53.464Z,28.72
2019-05-15T12:25:29.299Z,28.68
2019-05-15T12:28:00.207Z,28.69
2019-05-15T12:30:32.269Z,28.80
2019-05-15T12:33:04.015Z,28.97
2019-05-15T12:35:39.218Z,28.96
2019-05-15T12:38:09.899Z,28.98
2019-05-15T13:01:14.715Z,28.87
2019-05-15T13:03:38.294Z,28.67
2019-05-15T13:06:09.882Z,28.53
2019-05-15T13:08:41.535Z,28.56
2019-05-15T13:11:15.268Z,28.49
2019-05-15T13:13:48.428Z,28.52
2019-05-15T13:16:20.300Z,28.56
2019-05-15T13:18:53.397Z,28.53
2019-05-15T13:21:25.349Z,28.51
2019-05-15T13:23:58.675Z,28.37
2019-05-15T13:26:30.414Z,28.34
2019-05-15T13:29:02.447Z,28.53
2019-05-15T13:31:34.415Z,28.81
2019-05-15T13:34:08.153Z,29.28
2019-05-15T13:36:39.991Z,29.48
2019-05-15T13:39:11.753Z,29.65
2019-05-15T13:41:43.594Z,29.84
2019-05-15T13:44:15.570Z,30.05
2019-05-15T13:46:47.643Z,30.09
2019-05-15T13:49:19.498Z,30.05
2019-05-15T13:51:51.351Z,29.93
2019-05-15T13:54:23.409Z,29.91
2019-05-15T13:56:55.176Z,29.88
2019-05-15T13:59:28.544Z,29.96
2019-05-15T14:02:00.547Z,29.95
2019-05-15T14:04:32.607Z,30.01
2019-05-15T14:07:04.270Z,30.24
2019-05-15T14:09:43.575Z,30.33
2019-05-15T14:12:12.017Z,30.45
2019-05-15T14:14:41.575Z,30.52
2019-05-15T14:17:13.540Z,30.44
2019-05-15T14:19:45.621Z,30.33
2019-05-15T14:22:17.676Z,30.33
2019-05-15T14:24:49.533Z,30.31
2019-05-15T14:27:21.284Z,30.43
2019-05-15T14:29:53.164Z,30.47
2019-05-15T14:32:35.362Z,30.58
2019-05-15T14:34:58.666Z,30.69
2019-05-15T14:37:30.204Z,30.87
2019-05-15T14:40:02.857Z,31.18
2019-05-15T14:42:34.590Z,31.27
2019-05-15T14:45:08.810Z,31.17
2019-05-15T14:47:40.565Z,31.03
2019-05-15T14:50:12.546Z,31.65
2019-05-15T14:52:44.383Z,32.12
2019-05-15T14:55:16.351Z,32.63
2019-05-15T14:57:48.915Z,33.04
2019-05-15T15:00:21.412Z,33.24
2019-05-15T15:02:53.064Z,33.25
2019-05-15T15:05:26.248Z,33.47
2019-05-15T15:07:58.689Z,33.50
2019-05-15T15:10:30.500Z,33.54
2019-05-15T15:13:03.776Z,33.63
2019-05-15T15:15:37.935Z,33.81
2019-05-15T15:18:10.073Z,33.99
2019-05-15T15:20:41.917Z,34.36
2019-05-15T15:23:13.878Z,34.38
2019-05-15T15:25:48.737Z,34.34
2019-05-15T15:28:20.467Z,34.08
2019-05-15T15:30:53.914Z,34.22
2019-05-15T15:33:28.605Z,34.18
2019-05-15T15:35:59.226Z,34.06
2019-05-15T15:38:40.570Z,33.60
2019-05-15T15:41:04.396Z,33.38
2019-05-15T15:43:38.594Z,33.40
2019-05-15T15:46:09.755Z,33.22
2019-05-15T15:48:42.644Z,33.10
2019-05-15T15:51:14.686Z,32.79
2019-05-15T15:53:48.025Z,32.60
2019-05-15T15:56:20.893Z,32.31
2019-05-15T15:58:54.385Z,32.14
2019-05-15T16:01:28.473Z,31.79
2019-05-15T16:03:59.454Z,31.48
2019-05-15T16:06:31.527Z,31.05
2019-05-15T16:09:03.375Z,30.56
2019-05-15T16:11:35.430Z,30.15
2019-05-15T16:14:09.226Z,29.83
2019-05-15T16:16:40.665Z,29.54
2019-05-15T16:19:12.744Z,29.15
2019-05-15T16:21:44.551Z,28.84
2019-05-15T16:24:18.717Z,28.53
2019-05-15T16:26:49.820Z,28.20
2019-05-15T16:29:21.431Z,27.84
2019-05-15T16:31:53.383Z,27.65
2019-05-15T16:34:25.371Z,27.31
2019-05-15T16:36:58.477Z,26.95
2019-05-15T16:39:32.345Z,26.59
2019-05-15T16:42:03.311Z,26.25
2019-05-15T16:44:34.834Z,25.89
2019-05-15T16:47:11.794Z,25.34
2019-05-15T16:49:48.541Z,25.34
2019-05-15T16:52:19.967Z,25.04
2019-05-15T16:54:51.786Z,24.82
2019-05-15T16:57:23.664Z,24.60
2019-05-15T16:59:58.679Z,24.40
2019-05-15T17:02:32.247Z,24.21
2019-05-15T17:05:07.329Z,24.04
2019-05-15T17:07:40.301Z,23.88
2019-05-15T17:10:15.612Z,23.72
2019-05-15T17:12:49.304Z,23.57
2019-05-15T17:15:21.124Z,23.42
2019-05-15T17:17:54.401Z,23.27
2019-05-15T17:20:28.256Z,23.14
2019-05-15T17:22:59.800Z,23.02
2019-05-15T17:25:31.635Z,22.86
2019-05-15T17:28:05.117Z,22.65
2019-05-15T17:30:39.746Z,22.41
2019-05-15T17:33:11.522Z,22.19
2019-05-15T17:35:43.119Z,21.98
2019-05-15T17:38:15.015Z,21.81
2019-05-15T17:40:48.581Z,21.62
2019-05-15T17:43:21.299Z,21.45
2019-05-15T17:45:53.694Z,21.29
2019-05-15T17:48:25.425Z,21.14
2019-05-15T17:50:59.207Z,20.97
2019-05-15T17:53:32.120Z,20.84
2019-05-15T17:56:04.305Z,20.71
2019-05-15T17:58:39.440Z,20.62
2019-05-15T18:01:13.667Z,20.52
2019-05-15T18:03:48.445Z,20.45
2019-05-15T18:06:19.097Z,20.33
2019-05-15T18:08:51.134Z,20.22
2019-05-15T18:11:23.146Z,20.11
2019-05-15T18:14:13.462Z,20.02
2019-05-15T18:16:48.776Z,19.93
2019-05-15T18:19:21.334Z,19.85
2019-05-15T18:21:53.217Z,19.77
2019-05-15T18:24:25.057Z,19.67
2019-05-15T18:26:58.408Z,19.61
2019-05-15T18:29:31.664Z,19.55
2019-05-15T18:32:03.362Z,19.46
2019-05-15T18:34:35.281Z,19.38
2019-05-15T18:37:08.571Z,19.30
2019-05-15T18:39:45.659Z,19.22
2019-05-15T18:42:18.573Z,19.13
2019-05-15T18:44:50.618Z,19.04
2019-05-15T18:47:24.024Z,18.94
2019-05-15T18:50:05.237Z,18.84
2019-05-15T18:52:29.561Z,18.73
2019-05-15T18:55:09.092Z,18.64
2019-05-15T18:57:41.996Z,18.54
2019-05-15T19:00:18.412Z,18.47
2019-05-15T19:02:50.334Z,18.40
2019-05-15T19:05:22.496Z,18.34
2019-05-15T19:07:54.454Z,18.31
2019-05-15T19:10:28.273Z,18.30
2019-05-15T19:13:00.224Z,18.26
2019-05-15T19:15:37.811Z,18.22
2019-05-15T19:18:09.061Z,18.18
2019-05-15T19:20:40.927Z,18.13
2019-05-15T19:23:20.592Z,18.09
2019-05-15T19:25:52.579Z,18.04
2019-05-15T19:28:28.650Z,17.99
2019-05-15T19:31:00.433Z,17.95
2019-05-15T19:33:41.132Z,17.87
2019-05-15T19:36:11.845Z,17.78
2019-05-15T19:38:43.915Z,17.69
2019-05-15T19:41:15.766Z,17.65
2019-05-15T19:43:50.402Z,17.57
2019-05-15T19:46:22.351Z,17.52
2019-05-15T19:48:54.434Z,17.45
2019-05-15T19:51:28.824Z,17.38
2019-05-15T19:54:01.739Z,17.30
2019-05-15T19:56:35.321Z,17.29
2019-05-15T19:59:10.165Z,17.28
2019-05-15T20:01:48.610Z,17.25
2019-05-15T20:04:20.868Z,17.23
2019-05-15T20:06:54.647Z,17.21
2019-05-15T20:09:27.807Z,17.18
2019-05-15T20:12:04.374Z,17.14
2019-05-15T20:14:38.188Z,17.08
2019-05-15T20:17:12.521Z,17.03
2019-05-15T20:19:44.609Z,16.98
2019-05-15T20:22:19.326Z,16.94
2019-05-15T20:24:52.816Z,16.89
2019-05-15T20:27:24.892Z,16.87
2019-05-15T20:29:56.653Z,16.81
2019-05-15T20:32:28.442Z,16.73
2019-05-15T20:35:00.948Z,16.65
2019-05-15T20:37:32.647Z,16.57
2019-05-15T20:40:09.514Z,16.48
2019-05-15T20:42:41.470Z,16.42
2019-05-15T20:45:18.425Z,16.39
2019-05-15T20:47:50.427Z,16.38
2019-05-15T20:50:22.079Z,16.38
2019-05-15T20:52:53.946Z,16.38
2019-05-15T20:55:25.602Z,16.38
2019-05-15T20:57:58.608Z,16.36
2019-05-15T21:00:30.948Z,16.28
2019-05-15T21:03:02.798Z,16.28
2019-05-15T21:05:38.137Z,16.24
2019-05-15T21:08:09.611Z,16.21
2019-05-15T21:10:43.200Z,16.15
2019-05-15T21:13:14.827Z,16.10
2019-05-15T21:15:48.415Z,16.06
2019-05-15T21:18:20.338Z,16.04
2019-05-15T21:20:52.285Z,16.00
2019-05-15T21:23:23.943Z,15.99
2019-05-15T21:25:55.791Z,15.96
2019-05-15T21:28:27.739Z,15.94
2019-05-15T21:31:00.739Z,15.94
2019-05-15T21:33:32.716Z,15.92
2019-05-15T21:36:04.632Z,15.88
2019-05-15T21:38:38.717Z,15.81
2019-05-15T21:41:10.593Z,15.74
2019-05-15T21:43:42.516Z,15.69
2019-05-15T21:46:14.467Z,15.64
2019-05-15T21:48:48.551Z,15.59
2019-05-15T21:51:19.639Z,15.55
2019-05-15T21:53:51.604Z,15.52
2019-05-15T21:56:23.352Z,15.48
2019-05-15T21:58:55.382Z,15.46
2019-05-15T22:01:28.718Z,15.47
2019-05-15T22:04:00.656Z,15.48
2019-05-15T22:06:32.330Z,15.47
2019-05-15T22:09:07.831Z,15.45
2019-05-15T22:11:39.947Z,15.42
2019-05-15T22:14:11.801Z,15.41
2019-05-15T22:16:43.923Z,15.40
2019-05-15T22:19:18.133Z,15.38
2019-05-15T22:22:11.249Z,15.35
2019-05-15T22:24:44.330Z,15.31
2019-05-15T22:27:18.024Z,15.26
2019-05-15T22:29:49.573Z,15.24
2019-05-15T22:32:21.444Z,15.22
2019-05-15T22:35:06.232Z,15.17
2019-05-15T22:37:26.907Z,15.03
2019-05-15T22:40:00.823Z,15.03
2019-05-15T22:42:32.349Z,15.02
2019-05-15T22:45:09.024Z,15.01
2019-05-15T22:47:40.682Z,15.01
2019-05-15T22:50:13.805Z,15.03
2019-05-15T22:52:45.654Z,15.04
2019-05-15T22:55:18.235Z,15.03
2019-05-15T22:57:50.187Z,15.00
2019-05-15T23:00:22.559Z,14.98
2019-05-15T23:02:54.197Z,14.95
2019-05-15T23:05:29.326Z,14.91
2019-05-15T23:08:00.193Z,14.82
2019-05-15T23:10:31.932Z,14.78
2019-05-15T23:13:03.913Z,14.78
2019-05-15T23:15:38.380Z,14.75
2019-05-15T23:18:09.369Z,14.69
2019-05-15T23:20:41.319Z,14.64
2019-05-15T23:23:13.955Z,14.66
2019-05-15T23:25:45.652Z,14.65
2019-05-15T23:28:17.539Z,14.59
2019-05-15T23:30:50.307Z,14.54
2019-05-15T23:33:22.161Z,14.52
2019-05-15T23:35:54.243Z,14.56
2019-05-15T23:38:28.000Z,14.57
2019-05-15T23:40:59.924Z,14.58
2019-05-15T23:43:31.559Z,14.58
2019-05-15T23:46:03.419Z,14.58
2019-05-15T23:48:37.996Z,14.59
2019-05-15T23:51:08.883Z,14.58
2019-05-15T23:53:41.083Z,14.57
2019-05-15T23:56:13.011Z,14.54
2019-05-15T23:58:45.174Z,14.49
